Sierra Blanca, Texas
Current Conditions -  °F | °C
As of 2:44 AM on Tuesday 21 Oct 2014 (Local Time) from KGDP Reporting Station
Haze Haze  
Wind Chill: 54°   Ceiling: 7000
Heat Index: 54°   Visibility: 5mi
Dew Point: 54°   Wind: 13mph
Humidity: 100%   Direction: 80°E
Pressure: 30.16"   Gusts: NA
Location:  31.17°N, 105.36°W
Report Text: KGDP 210844Z AUTO 08011KT 5SM BR SCT005 SCT044 OVC070 12/12 A3016 RMK AO2 RAB19E29 P0000 T01220122
Loading
Personal Weather Stations






























Interactive Weather Map
Tropical Storm Tracking
New forecast layout! Learn more

10-Day Weather Forecast

Advertisements
Track Severe Weather on mobile